Kezdőlap
METAR-TAF:

METAR-TAF

Repülőterek :

Farmingdale, New York, Amerikai Egyesült Államok

földrajzi szélesség: 40-44-03N, földrajzi hosszúság: 073-25-01W, magasság: 24 m

Jelenlegi meteorológiai megfigyelések

A jelentés 48 perccel ezelõtt készült, 15:53 UTC
Nyugat-délnyugati szél 8 kt
Hőmérséklet 11°C
Páratartalom 24%
Légköri nyomás 1023 hPa
Látótávolság: 16.1 km
Derült ég

METAR: KFRG 231553Z 25008KT 10SM CLR 11/M09 A3020 RMK AO2 SLP228 T01061094

Idő: 11:41 (16:41 UTC)


TAF: hiányzik

Meteorológiai megfigyelések és előrejelzések több, mint 4000 repülőtéren (METAR és TAF jelentéseket).

A térképen piros és sárga pontok jelzik az elérhető meteorológiai állomásokat.

Mozgassa az egeret a pont fölött, hogy megjelenjen az állomás neve.

Azután kattintson az időjárási megfigyelések és előrejelzések megtekintéséhez.

A térkép megváltoztatása: kattintson a fekete keresztel jelölt zöld gombra ráközelítéshez, a vonallal jelölt zöld gombra távolításhoz, vagy a zöld nyilakra a szomszédos térképek eléréséhez.


METAR-TAF: